Time;durP1;ratioP1;P1;durP2;ratioP2;P2;SDS_P1;SDS_P2;PMS_P1;PMS_P2;Temp;Humidity;BMP_temperature;BMP_pressure;BME280_temperature;BME280_humidity;BME280_pressure;Samples;Min_cycle;Max_cycle;Signal;HPM_P1;HPM_P2
2021/04/15 00:01:23;;;;;;;4.20;2.87;;;;;;;-142.06;100.00;64312.41;5012614;28;20209;-82
2021/04/15 00:05:36;;;;;;;5.10;2.83;;;;;;;-142.06;100.00;64312.41;5040108;23;20239;-81
2021/04/15 00:10:15;;;;;;;3.83;2.43;;;;;;;-142.06;100.00;64312.41;4995920;28;20246;-82
2021/04/15 00:14:09;;;;;;;4.77;2.50;;;;;;;-142.06;100.00;64312.41;5001325;28;20235;-82
2021/04/15 00:18:02;;;;;;;5.47;2.90;;;;;;;-142.06;100.00;64312.41;5032739;23;20210;-81
2021/04/15 00:22:11;;;;;;;6.97;3.00;;;;;;;-142.06;100.00;64312.41;5022308;28;20213;-81
2021/04/15 00:27:02;;;;;;;4.20;2.90;;;;;;;-142.06;100.00;64312.41;5037089;28;20218;-80
2021/04/15 00:31:25;;;;;;;4.93;2.93;;;;;;;-142.06;100.00;64312.41;4967559;28;20313;-80
2021/04/15 00:35:57;;;;;;;4.97;3.50;;;;;;;-142.06;100.00;64312.41;5012671;23;20198;-81
2021/04/15 00:40:07;;;;;;;4.53;2.97;;;;;;;-142.06;100.00;64312.41;5015569;23;20223;-82
2021/04/15 00:45:07;;;;;;;7.30;3.50;;;;;;;-142.06;100.00;64312.41;5014101;28;20227;-81
2021/04/15 00:54:05;;;;;;;5.73;3.23;;;;;;;-142.06;100.00;64312.41;5028736;23;20234;-80
2021/04/15 00:58:28;;;;;;;4.17;3.33;;;;;;;-142.06;100.00;64312.41;5015533;28;20208;-81
2021/04/15 01:02:57;;;;;;;6.30;3.40;;;;;;;-142.06;100.00;64312.41;5040572;23;20237;-80
2021/04/15 01:07:29;;;;;;;4.57;3.57;;;;;;;-142.06;100.00;64312.41;5026918;23;20262;-81
2021/04/15 01:11:56;;;;;;;6.40;3.70;;;;;;;-142.06;100.00;64312.41;5001141;28;20247;-81
2021/04/15 01:16:25;;;;;;;4.50;3.50;;;;;;;-142.06;100.00;64312.41;4991323;28;20262;-80
2021/04/15 01:21:15;;;;;;;4.37;3.60;;;;;;;-142.06;100.00;64312.41;5036730;23;20234;-81
2021/04/15 01:26:03;;;;;;;4.70;3.80;;;;;;;-142.06;100.00;64312.41;5044538;23;20244;-81
2021/04/15 01:30:48;;;;;;;7.03;3.90;;;;;;;-142.06;100.00;64312.41;5015529;28;20251;-81
2021/04/15 01:40:38;;;;;;;7.67;4.10;;;;;;;-142.06;100.00;64312.41;5032672;23;20192;-81
2021/04/15 01:45:33;;;;;;;4.20;3.70;;;;;;;-142.06;100.00;64312.41;4983198;23;20249;-80
2021/04/15 01:50:16;;;;;;;6.47;4.10;;;;;;;-142.06;100.00;64312.41;5044463;23;20260;-81
2021/04/15 01:54:54;;;;;;;8.90;4.07;;;;;;;-142.06;100.00;64312.41;5036863;23;20218;-80
2021/04/15 01:59:37;;;;;;;4.93;4.07;;;;;;;-142.06;100.00;64312.41;5025252;23;20238;-81
2021/04/15 02:04:38;;;;;;;6.67;4.60;;;;;;;-142.06;100.00;64312.41;5042147;23;20226;-81
2021/04/15 02:08:47;;;;;;;4.70;3.73;;;;;;;-142.06;100.00;64312.41;5137729;23;20533;-80
2021/04/15 02:13:23;;;;;;;4.33;3.83;;;;;;;-142.06;100.00;64312.41;5022442;23;20238;-81
2021/04/15 02:18:24;;;;;;;5.27;4.03;;;;;;;-142.06;100.00;64312.41;5062374;23;20242;-81
2021/04/15 02:22:53;;;;;;;7.03;4.20;;;;;;;-142.06;100.00;64312.41;4990215;28;20658;-81
2021/04/15 02:27:30;;;;;;;6.67;4.40;;;;;;;-142.06;100.00;64312.41;4971734;28;20239;-81
2021/04/15 02:31:39;;;;;;;6.07;4.17;;;;;;;-142.06;100.00;64312.41;4994827;23;20284;-81
2021/04/15 02:35:46;;;;;;;5.57;4.27;;;;;;;-142.06;100.00;64312.41;5031318;23;20247;-81
2021/04/15 02:40:11;;;;;;;6.60;4.07;;;;;;;-142.06;100.00;64312.41;5022438;28;20529;-81
2021/04/15 02:45:01;;;;;;;6.90;4.23;;;;;;;-142.06;100.00;64312.41;5124412;23;20221;-81
2021/04/15 02:49:42;;;;;;;5.67;4.20;;;;;;;-142.06;100.00;64312.41;4979201;23;20234;-82
2021/04/15 02:53:57;;;;;;;5.17;4.10;;;;;;;-142.06;100.00;64312.41;5050171;28;20218;-80
2021/04/15 02:58:51;;;;;;;6.90;4.53;;;;;;;-142.06;100.00;64312.41;5054031;28;20218;-81
2021/04/15 03:03:12;;;;;;;5.10;4.00;;;;;;;-142.06;100.00;64312.41;5029932;28;20230;-81
2021/04/15 03:07:27;;;;;;;7.60;4.47;;;;;;;-142.06;100.00;64312.41;5027843;23;20231;-81
2021/04/15 03:11:52;;;;;;;5.80;4.60;;;;;;;-142.06;100.00;64312.41;5013234;28;20219;-81
2021/04/15 03:16:12;;;;;;;5.70;4.37;;;;;;;-142.06;100.00;64312.41;5022019;23;20227;-81
2021/04/15 03:20:36;;;;;;;4.70;4.17;;;;;;;-142.06;100.00;64312.41;5038415;23;20254;-81
2021/04/15 03:25:26;;;;;;;5.37;3.93;;;;;;;-142.06;100.00;64312.41;5062959;23;20721;-80
2021/04/15 03:29:51;;;;;;;5.43;4.43;;;;;;;-142.06;100.00;64312.41;5051144;28;20212;-81
2021/04/15 03:34:27;;;;;;;8.17;4.43;;;;;;;-142.06;100.00;64312.41;5025492;23;20592;-81
2021/04/15 03:39:23;;;;;;;5.67;4.03;;;;;;;-142.06;100.00;64312.41;5052717;23;20227;-81
2021/04/15 03:43:47;;;;;;;5.70;4.77;;;;;;;-142.06;100.00;64312.41;5002776;28;20228;-81
2021/04/15 03:48:16;;;;;;;5.87;4.13;;;;;;;-142.06;100.00;64312.41;5029764;23;20265;-81
2021/04/15 03:53:18;;;;;;;7.10;4.60;;;;;;;-142.06;100.00;64312.41;5029177;28;20203;-81
2021/04/15 03:57:54;;;;;;;5.83;4.40;;;;;;;-142.06;100.00;64312.41;5019494;28;20341;-80
2021/04/15 04:02:17;;;;;;;5.80;4.40;;;;;;;-142.06;100.00;64312.41;5044733;23;20298;-81
2021/04/15 04:06:59;;;;;;;7.67;4.10;;;;;;;-142.06;100.00;64312.41;5037210;23;20249;-81
2021/04/15 04:11:24;;;;;;;6.70;5.13;;;;;;;-142.06;100.00;64312.41;5027519;28;20194;-81
2021/04/15 04:16:17;;;;;;;7.10;4.90;;;;;;;-142.06;100.00;64312.41;5065358;23;20253;-80
2021/04/15 04:20:48;;;;;;;6.10;4.53;;;;;;;-142.06;100.00;64312.41;5049590;23;20261;-81
2021/04/15 04:24:59;;;;;;;7.53;4.77;;;;;;;-142.06;100.00;64312.41;4989357;28;20191;-81
2021/04/15 04:29:36;;;;;;;6.63;4.67;;;;;;;-142.06;100.00;64312.41;5063927;23;20269;-80
2021/04/15 04:33:53;;;;;;;7.10;5.20;;;;;;;-142.06;100.00;64312.41;5055048;23;20627;-80
2021/04/15 04:38:15;;;;;;;8.17;4.90;;;;;;;-142.06;100.00;64312.41;5021805;23;20232;-81
2021/04/15 04:47:29;;;;;;;8.67;5.13;;;;;;;-142.06;100.00;64312.41;5008203;23;20261;-81
2021/04/15 04:52:19;;;;;;;6.23;5.50;;;;;;;-142.06;100.00;64312.41;5039322;23;20222;-80
2021/04/15 04:56:38;;;;;;;7.60;4.80;;;;;;;-142.06;100.00;64312.41;5045472;28;20227;-80
2021/04/15 05:01:17;;;;;;;6.30;4.97;;;;;;;-142.06;100.00;64312.41;5046114;28;20277;-82
2021/04/15 05:05:48;;;;;;;6.33;4.80;;;;;;;-142.06;100.00;64312.41;5032669;28;20221;-81
2021/04/15 05:10:29;;;;;;;6.97;5.10;;;;;;;-142.06;100.00;64312.41;5026208;28;20258;-82
2021/04/15 05:14:58;;;;;;;8.93;4.83;;;;;;;-142.06;100.00;64312.41;5001990;28;20238;-81
2021/04/15 05:19:56;;;;;;;6.07;4.47;;;;;;;-142.06;100.00;64312.41;5058552;23;20226;-82
2021/04/15 05:24:18;;;;;;;8.13;4.97;;;;;;;-142.06;100.00;64312.41;5055145;28;20657;-80
2021/04/15 05:28:50;;;;;;;5.53;4.90;;;;;;;-142.06;100.00;64312.41;5055044;28;20245;-82
2021/04/15 05:33:52;;;;;;;8.57;5.30;;;;;;;-142.06;100.00;64312.41;5044900;28;20240;-82
2021/04/15 05:38:16;;;;;;;9.00;4.70;;;;;;;-142.06;100.00;64312.41;5137160;23;20241;-81
2021/04/15 05:42:53;;;;;;;7.60;5.13;;;;;;;-142.06;100.00;64312.41;5035553;23;20236;-81
2021/04/15 05:47:35;;;;;;;5.83;4.73;;;;;;;-142.06;100.00;64312.41;5008273;28;20253;-82
2021/04/15 05:51:52;;;;;;;7.37;4.77;;;;;;;-142.06;100.00;64312.41;5026628;28;20211;-83
2021/04/15 05:56:38;;;;;;;7.07;5.23;;;;;;;-142.06;100.00;64312.41;5028623;28;20219;-82
2021/04/15 06:01:32;;;;;;;6.50;4.97;;;;;;;-142.06;100.00;64312.41;5017062;28;20234;-82
2021/04/15 06:05:45;;;;;;;5.30;4.30;;;;;;;-142.06;100.00;64312.41;5027249;23;20235;-82
2021/04/15 06:10:01;;;;;;;7.47;4.40;;;;;;;-142.06;100.00;64312.41;5017500;23;20247;-82
2021/04/15 06:15:00;;;;;;;6.47;4.50;;;;;;;-142.06;100.00;64312.41;4991553;28;20226;-81
2021/04/15 06:19:09;;;;;;;6.37;4.80;;;;;;;-142.06;100.00;64312.41;5036893;23;20223;-81
2021/04/15 06:23:19;;;;;;;6.43;4.53;;;;;;;-142.06;100.00;64312.41;5030039;28;20206;-82
2021/04/15 06:27:54;;;;;;;6.33;4.60;;;;;;;-142.06;100.00;64312.41;4997148;28;20231;-81
2021/04/15 06:32:24;;;;;;;8.47;4.37;;;;;;;-142.06;100.00;64312.41;5038016;23;20229;-81
2021/04/15 06:36:01;;;;;;;8.53;4.17;;;;;;;-142.06;100.00;64312.41;5013133;28;20496;-82
2021/04/15 06:40:43;;;;;;;5.67;4.00;;;;;;;-142.06;100.00;64312.41;5025310;23;20260;-82
2021/04/15 06:45:48;;;;;;;6.37;4.20;;;;;;;-142.06;100.00;64312.41;5048871;28;20194;-81
2021/04/15 06:49:47;;;;;;;4.70;3.83;;;;;;;-142.06;100.00;64312.41;5004173;28;20661;-81
2021/04/15 06:54:04;;;;;;;5.37;3.47;;;;;;;-142.06;100.00;64312.41;5004813;28;20235;-82
2021/04/15 06:58:20;;;;;;;4.63;3.67;;;;;;;-142.06;100.00;64312.41;5002406;28;20703;-82
2021/04/15 07:02:55;;;;;;;6.07;3.60;;;;;;;-142.06;100.00;64312.41;5025394;28;20305;-82
2021/04/15 07:07:05;;;;;;;7.17;3.90;;;;;;;-142.06;100.00;64312.41;4994338;28;20214;-82
2021/04/15 07:11:16;;;;;;;6.13;3.60;;;;;;;-142.06;100.00;64312.41;5028043;28;20690;-82
2021/04/15 07:15:33;;;;;;;3.47;3.07;;;;;;;-142.06;100.00;64312.41;4990657;28;20306;-81
2021/04/15 07:19:59;;;;;;;5.43;3.40;;;;;;;-142.06;100.00;64312.41;5006973;28;20262;-82
2021/04/15 07:24:07;;;;;;;4.90;3.10;;;;;;;-142.06;100.00;64312.41;5029486;28;20565;-82
2021/04/15 07:28:19;;;;;;;3.63;2.57;;;;;;;-142.06;100.00;64312.41;5034280;23;20229;-82
2021/04/15 07:32:41;;;;;;;3.60;2.50;;;;;;;-142.06;100.00;64312.41;4882058;29;20317;-82
2021/04/15 07:37:38;;;;;;;3.00;2.43;;;;;;;-142.06;100.00;64312.41;4905378;29;20309;-81
2021/04/15 07:42:05;;;;;;;4.23;2.73;;;;;;;-142.06;100.00;64312.41;4953044;29;20197;-84
2021/04/15 07:46:23;;;;;;;3.87;2.60;;;;;;;-142.06;100.00;64312.41;4958683;29;20235;-82
2021/04/15 07:51:08;;;;;;;3.23;2.53;;;;;;;-142.06;100.00;64312.41;4956480;23;20220;-81
2021/04/15 07:55:39;;;;;;;4.50;2.93;;;;;;;-142.06;100.00;64312.41;4976906;28;20320;-82
2021/04/15 08:00:47;;;;;;;4.43;2.77;;;;;;;-142.06;100.00;64312.41;5011073;23;20236;-82
2021/04/15 08:05:37;;;;;;;3.80;2.47;;;;;;;-142.06;100.00;64312.41;4991997;23;20230;-81
2021/04/15 08:10:17;;;;;;;3.47;2.87;;;;;;;-142.06;100.00;64312.41;4998420;28;20229;-82
2021/04/15 08:15:19;;;;;;;4.30;2.80;;;;;;;-142.06;100.00;64312.41;5017552;28;20232;-81
2021/04/15 08:19:37;;;;;;;3.33;2.87;;;;;;;-142.06;100.00;64312.41;4944882;28;20221;-83
2021/04/15 08:24:24;;;;;;;4.07;3.13;;;;;;;-142.06;100.00;64312.41;4983990;23;20231;-82
2021/04/15 08:28:45;;;;;;;5.13;3.07;;;;;;;-142.06;100.00;64312.41;5046937;23;20268;-82
2021/04/15 08:33:12;;;;;;;6.03;2.80;;;;;;;-142.06;100.00;64312.41;5024726;28;20726;-81
2021/04/15 08:37:33;;;;;;;4.33;3.07;;;;;;;-142.06;100.00;64312.41;5024917;28;20236;-82
2021/04/15 08:42:02;;;;;;;4.47;3.10;;;;;;;-142.06;100.00;64312.41;5025583;28;20210;-81
2021/04/15 08:46:30;;;;;;;4.30;2.53;;;;;;;-142.06;100.00;64312.41;5045258;23;20252;-81
2021/04/15 08:51:12;;;;;;;3.60;2.70;;;;;;;-142.06;100.00;64312.41;5031266;28;20230;-81
2021/04/15 08:55:56;;;;;;;4.37;2.50;;;;;;;-142.06;100.00;64312.41;5039914;23;20692;-81
2021/04/15 09:00:03;;;;;;;2.40;2.20;;;;;;;-142.06;100.00;64312.41;5034323;28;20249;-82
2021/04/15 09:04:10;;;;;;;2.40;2.20;;;;;;;-142.06;100.00;64312.41;5005237;28;20253;-81
2021/04/15 09:09:15;;;;;;;2.67;2.17;;;;;;;-142.06;100.00;64312.41;5036867;23;20234;-81
2021/04/15 09:14:01;;;;;;;3.43;2.00;;;;;;;-142.06;100.00;64312.41;4972619;28;20720;-81
2021/04/15 09:18:44;;;;;;;2.47;1.63;;;;;;;-142.06;100.00;64312.41;5029808;23;20234;-81
2021/04/15 09:23:21;;;;;;;3.97;1.77;;;;;;;-142.06;100.00;64312.41;5033852;28;20263;-83
2021/04/15 09:28:22;;;;;;;2.00;1.23;;;;;;;-142.06;100.00;64312.41;4993143;28;20616;-81
2021/04/15 09:32:56;;;;;;;2.83;1.90;;;;;;;-142.06;100.00;64312.41;5033794;23;20229;-82
2021/04/15 09:37:22;;;;;;;1.90;1.60;;;;;;;-142.06;100.00;64312.41;5019454;28;20268;-81
2021/04/15 09:42:08;;;;;;;2.70;2.00;;;;;;;-142.06;100.00;64312.41;5000094;28;20227;-81
2021/04/15 09:46:06;;;;;;;2.10;1.80;;;;;;;-142.06;100.00;64312.41;5006225;28;20215;-85
2021/04/15 09:50:30;;;;;;;2.43;2.00;;;;;;;-142.06;100.00;64312.41;5014343;28;20226;-81
2021/04/15 09:54:38;;;;;;;2.90;2.07;;;;;;;-142.06;100.00;64312.41;4993886;28;20227;-83
2021/04/15 09:58:56;;;;;;;3.33;2.03;;;;;;;-142.06;100.00;64312.41;4976126;28;20237;-82
2021/04/15 10:03:08;;;;;;;4.47;2.07;;;;;;;-142.06;100.00;64312.41;5008779;28;20215;-82
2021/04/15 10:07:44;;;;;;;3.03;1.80;;;;;;;-142.06;100.00;64312.41;5007782;28;20227;-82
2021/04/15 10:12:09;;;;;;;3.17;1.77;;;;;;;-142.06;100.00;64312.41;4996691;28;20246;-81
2021/04/15 10:16:29;;;;;;;3.23;1.80;;;;;;;-142.06;100.00;64312.41;5006943;28;20227;-83
2021/04/15 10:20:32;;;;;;;2.93;1.93;;;;;;;-142.06;100.00;64312.41;5016498;28;20228;-84
2021/04/15 10:24:55;;;;;;;3.57;1.77;;;;;;;-142.06;100.00;64312.41;5025348;28;20229;-81
2021/04/15 10:29:24;;;;;;;2.23;2.03;;;;;;;-142.06;100.00;64312.41;5014514;28;20237;-81
2021/04/15 10:33:58;;;;;;;3.80;1.90;;;;;;;-142.06;100.00;64312.41;5029612;28;20239;-81
2021/04/15 10:38:34;;;;;;;2.70;2.23;;;;;;;-142.06;100.00;64312.41;4992700;28;20215;-81
2021/04/15 10:42:50;;;;;;;4.20;1.80;;;;;;;-142.06;100.00;64312.41;5015955;23;20242;-80
2021/04/15 10:47:09;;;;;;;3.30;2.30;;;;;;;-142.06;100.00;64312.41;5085808;23;20425;-82
2021/04/15 10:51:34;;;;;;;3.30;1.93;;;;;;;-142.06;100.00;64312.41;5013273;28;20262;-82
2021/04/15 10:56:02;;;;;;;2.47;2.13;;;;;;;-142.06;100.00;64312.41;4986317;28;20272;-80
2021/04/15 10:59:53;;;;;;;2.47;1.87;;;;;;;-142.06;100.00;64312.41;5009988;23;20262;-80
2021/04/15 11:04:32;;;;;;;3.03;2.10;;;;;;;-142.06;100.00;64312.41;5016244;23;20235;-81
2021/04/15 11:08:55;;;;;;;2.83;2.23;;;;;;;-142.06;100.00;64312.41;4997173;28;20246;-81
2021/04/15 11:13:18;;;;;;;3.60;2.40;;;;;;;-142.06;100.00;64312.41;5015655;28;20202;-83
2021/04/15 11:17:32;;;;;;;2.87;2.20;;;;;;;-142.06;100.00;64312.41;5001174;28;20278;-81
2021/04/15 11:21:53;;;;;;;2.60;2.13;;;;;;;-142.06;100.00;64312.41;5011281;28;20246;-81
2021/04/15 11:26:24;;;;;;;3.80;2.53;;;;;;;-142.06;100.00;64312.41;5001121;28;20229;-81
2021/04/15 11:30:56;;;;;;;2.47;2.27;;;;;;;-142.06;100.00;64312.41;4996539;28;20295;-81
2021/04/15 11:35:25;;;;;;;3.07;2.20;;;;;;;-142.06;100.00;64312.41;5004876;28;20327;-81
2021/04/15 11:39:39;;;;;;;2.87;2.30;;;;;;;-142.06;100.00;64312.41;5012447;28;20241;-81
2021/04/15 11:43:52;;;;;;;3.67;2.40;;;;;;;-142.06;100.00;64312.41;5026377;28;20310;-83
2021/04/15 11:48:06;;;;;;;3.03;2.20;;;;;;;-142.06;100.00;64312.41;5024045;28;20585;-82
2021/04/15 11:52:36;;;;;;;2.90;2.63;;;;;;;-142.06;100.00;64312.41;5004527;28;20223;-82
2021/04/15 11:56:48;;;;;;;2.37;2.17;;;;;;;-142.06;100.00;64312.41;4988475;28;20235;-81
2021/04/15 12:00:39;;;;;;;2.97;2.67;;;;;;;-142.06;100.00;64312.41;5008355;28;20239;-84
2021/04/15 12:05:22;;;;;;;2.93;2.40;;;;;;;-142.06;100.00;64312.41;5001478;28;20238;-81
2021/04/15 12:09:20;;;;;;;3.13;2.50;;;;;;;-142.06;100.00;64312.41;4999358;28;20230;-81
2021/04/15 12:13:29;;;;;;;2.93;2.70;;;;;;;-142.06;100.00;64312.41;5026013;23;20290;-82
2021/04/15 12:17:34;;;;;;;2.23;2.00;;;;;;;-142.06;100.00;64312.41;5026781;28;20297;-82
2021/04/15 12:21:55;;;;;;;3.57;1.93;;;;;;;-142.06;100.00;64312.41;5030585;28;22466;-82
2021/04/15 12:26:21;;;;;;;2.77;2.30;;;;;;;-142.06;100.00;64312.41;5016083;28;20249;-84
2021/04/15 12:30:32;;;;;;;3.30;2.30;;;;;;;-142.06;100.00;64312.41;5026329;28;20234;-82
2021/04/15 12:34:41;;;;;;;3.73;2.60;;;;;;;-142.06;100.00;64312.41;4975431;28;20285;-82
2021/04/15 12:38:53;;;;;;;3.73;2.80;;;;;;;-142.06;100.00;64312.41;4995109;28;20251;-82
2021/04/15 12:42:52;;;;;;;2.67;2.47;;;;;;;-142.06;100.00;64312.41;4995058;28;20231;-82
2021/04/15 12:46:47;;;;;;;3.30;2.50;;;;;;;-142.06;100.00;64312.41;5026454;28;20234;-82
2021/04/15 12:50:46;;;;;;;3.50;2.70;;;;;;;-142.06;100.00;64312.41;5000537;28;20220;-84
2021/04/15 12:54:55;;;;;;;2.47;2.27;;;;;;;-142.06;100.00;64312.41;5011277;28;20233;-83
2021/04/15 12:58:57;;;;;;;3.30;2.50;;;;;;;-142.06;100.00;64312.41;4994601;28;20635;-82
2021/04/15 13:03:17;;;;;;;3.90;2.73;;;;;;;-142.06;100.00;64312.41;4996413;28;20231;-82
2021/04/15 13:07:17;;;;;;;3.30;2.33;;;;;;;-142.06;100.00;64312.41;5007604;28;20643;-82
2021/04/15 13:11:29;;;;;;;3.63;2.67;;;;;;;-142.06;100.00;64312.41;5016852;28;20656;-82
2021/04/15 13:15:44;;;;;;;2.83;2.23;;;;;;;-142.06;100.00;64312.41;5004475;28;20216;-82
2021/04/15 13:20:02;;;;;;;4.87;2.50;;;;;;;-142.06;100.00;64312.41;4987878;28;20224;-84
2021/04/15 13:24:35;;;;;;;3.17;2.67;;;;;;;-142.06;100.00;64312.41;4970600;28;20231;-83
2021/04/15 13:28:53;;;;;;;3.33;2.80;;;;;;;-142.06;100.00;64312.41;5003196;28;20223;-84
2021/04/15 13:33:12;;;;;;;2.50;2.30;;;;;;;-142.06;100.00;64312.41;4987491;28;20569;-81
2021/04/15 13:37:21;;;;;;;2.73;2.40;;;;;;;-142.06;100.00;64312.41;4986425;28;20272;-81
2021/04/15 13:42:11;;;;;;;3.70;3.07;;;;;;;-142.06;100.00;64312.41;5003527;28;20232;-84
2021/04/15 13:46:42;;;;;;;2.90;2.07;;;;;;;-142.06;100.00;64312.41;4954256;28;20236;-82
2021/04/15 13:50:58;;;;;;;2.27;2.07;;;;;;;-142.06;100.00;64312.41;4976289;28;20252;-81
2021/04/15 13:55:33;;;;;;;3.17;2.00;;;;;;;-142.06;100.00;64312.41;4987387;28;20228;-82
2021/04/15 13:59:51;;;;;;;2.40;2.20;;;;;;;-142.06;100.00;64312.41;4986096;28;20227;-81
2021/04/15 14:03:49;;;;;;;2.63;2.30;;;;;;;-142.06;100.00;64312.41;4971710;28;20227;-82
2021/04/15 14:07:50;;;;;;;13.00;8.77;;;;;;;-142.06;100.00;64312.41;5001867;28;20302;-81
2021/04/15 14:11:58;;;;;;;2.47;2.27;;;;;;;-142.06;100.00;64312.41;4968870;28;20325;-82
2021/04/15 14:16:17;;;;;;;2.67;2.23;;;;;;;-142.06;100.00;64312.41;4971144;28;20228;-81
2021/04/15 14:20:18;;;;;;;2.80;1.90;;;;;;;-142.06;100.00;64312.41;4985271;28;20235;-82
2021/04/15 14:24:34;;;;;;;2.30;2.07;;;;;;;-142.06;100.00;64312.41;4988710;28;20251;-82
2021/04/15 14:29:16;;;;;;;2.83;2.30;;;;;;;-142.06;100.00;64312.41;4976920;28;20335;-82
2021/04/15 14:33:26;;;;;;;3.07;1.80;;;;;;;-142.06;100.00;64312.41;4974652;28;20269;-81
2021/04/15 14:37:43;;;;;;;7.57;6.97;;;;;;;-142.06;100.00;64312.41;4956666;28;20228;-82
2021/04/15 14:42:01;;;;;;;5.33;2.17;;;;;;;-142.06;100.00;64312.41;4967120;28;20225;-82
2021/04/15 14:46:25;;;;;;;5.27;3.63;;;;;;;-142.06;100.00;64312.41;4990324;28;20239;-81
2021/04/15 14:50:43;;;;;;;2.23;2.03;;;;;;;-142.06;100.00;64312.41;5019386;23;20254;-82
2021/04/15 14:55:07;;;;;;;5.50;5.00;;;;;;;-142.06;100.00;64312.41;5041250;23;20226;-81
2021/04/15 14:59:28;;;;;;;5.03;1.97;;;;;;;-142.06;100.00;64312.41;5054623;28;20208;-82
2021/04/15 15:03:56;;;;;;;8.73;5.70;;;;;;;-142.06;100.00;64312.41;5034774;28;20230;-82
2021/04/15 15:08:04;;;;;;;2.67;1.77;;;;;;;-142.06;100.00;64312.41;5039880;28;20221;-81
2021/04/15 15:16:25;;;;;;;7.80;5.33;;;;;;;-142.06;100.00;64312.41;4968103;28;20240;-81
2021/04/15 15:21:18;;;;;;;2.63;1.70;;;;;;;-142.06;100.00;64312.41;4959840;29;20233;-81
2021/04/15 15:25:36;;;;;;;8.10;5.47;;;;;;;-142.06;100.00;64312.41;4953157;29;20260;-81
2021/04/15 15:30:16;;;;;;;3.00;2.37;;;;;;;-142.06;100.00;64312.41;4952630;29;20561;-81
2021/04/15 15:35:13;;;;;;;3.33;2.17;;;;;;;-142.06;100.00;64312.41;4960957;23;20241;31
2021/04/15 15:39:46;;;;;;;2.80;1.60;;;;;;;-142.06;100.00;64312.41;4924453;23;20246;-80
2021/04/15 15:44:31;;;;;;;6.07;5.57;;;;;;;-142.06;100.00;64312.41;4986095;28;20231;-81
2021/04/15 15:49:10;;;;;;;2.43;2.00;;;;;;;-142.06;100.00;64312.41;5027423;28;20222;-81
2021/04/15 15:54:08;;;;;;;3.23;2.07;;;;;;;-142.06;100.00;64312.41;5038629;23;20294;-82
2021/04/15 15:58:46;;;;;;;4.60;3.60;;;;;;;-142.06;100.00;64312.41;5015246;28;20195;-82
2021/04/15 16:03:37;;;;;;;4.43;2.00;;;;;;;-142.06;100.00;64312.41;5031778;28;20286;-81
2021/04/15 16:08:13;;;;;;;2.10;1.90;;;;;;;-142.06;100.00;64312.41;5129295;23;20285;-83
2021/04/15 16:12:57;;;;;;;2.10;1.80;;;;;;;-142.06;100.00;64312.41;5027317;23;20234;-81
2021/04/15 16:17:40;;;;;;;2.00;1.90;;;;;;;-142.06;100.00;64312.41;5015185;28;20238;-81
2021/04/15 16:22:08;;;;;;;2.47;2.20;;;;;;;-142.06;100.00;64312.41;5040092;23;20234;-82
2021/04/15 16:26:30;;;;;;;1.60;1.50;;;;;;;-142.06;100.00;64312.41;5022851;28;20314;-81
2021/04/15 16:31:26;;;;;;;2.23;2.03;;;;;;;-142.06;100.00;64312.41;5044547;23;20226;-81
2021/04/15 16:36:08;;;;;;;2.83;2.60;;;;;;;-142.06;100.00;64312.41;5064964;28;20217;-82
2021/04/15 16:40:42;;;;;;;2.17;1.83;;;;;;;-142.06;100.00;64312.41;5043697;28;20290;-81
2021/04/15 16:44:31;;;;;;;3.83;1.60;;;;;;;-142.06;100.00;64312.41;5060024;23;20236;-82
2021/04/15 16:48:34;;;;;;;2.73;1.40;;;;;;;-142.06;100.00;64312.41;5037799;28;20230;-81
2021/04/15 16:53:07;;;;;;;3.67;1.53;;;;;;;-142.06;100.00;64312.41;5053291;28;20250;-82
2021/04/15 16:57:14;;;;;;;2.20;2.00;;;;;;;-142.06;100.00;64312.41;5042131;28;20226;-81
2021/04/15 17:01:28;;;;;;;3.43;2.50;;;;;;;-142.06;100.00;64312.41;5088492;22;20245;-81
2021/04/15 17:06:07;;;;;;;2.20;1.93;;;;;;;-142.06;100.00;64312.41;5041623;28;20226;-81
2021/04/15 17:10:18;;;;;;;3.03;2.10;;;;;;;-142.06;100.00;64312.41;5067548;23;20225;-81
2021/04/15 17:14:14;;;;;;;2.13;1.90;;;;;;;-142.06;100.00;64312.41;5048330;23;20656;-82
2021/04/15 17:18:31;;;;;;;1.87;1.77;;;;;;;-142.06;100.00;64312.41;5052584;28;20193;-82
2021/04/15 17:23:11;;;;;;;2.07;1.97;;;;;;;-142.06;100.00;64312.41;5059470;23;20264;-81
2021/04/15 17:27:42;;;;;;;1.87;1.77;;;;;;;-142.06;100.00;64312.41;5021237;28;20238;-82
2021/04/15 17:32:11;;;;;;;2.50;1.90;;;;;;;-142.06;100.00;64312.41;5014239;28;20227;-83
2021/04/15 17:36:41;;;;;;;3.07;2.10;;;;;;;-142.06;100.00;64312.41;5014313;28;20230;-84
2021/04/15 17:40:59;;;;;;;1.90;1.80;;;;;;;-142.06;100.00;64312.41;5011502;28;20222;-82
2021/04/15 17:45:46;;;;;;;1.50;1.40;;;;;;;-142.06;100.00;64312.41;5013070;28;20227;-83
2021/04/15 17:50:26;;;;;;;1.50;1.40;;;;;;;-142.06;100.00;64312.41;5014819;28;20215;-84
2021/04/15 17:54:45;;;;;;;1.53;1.43;;;;;;;-142.06;100.00;64312.41;5020901;23;20226;-82
2021/04/15 17:58:49;;;;;;;1.50;1.40;;;;;;;-142.06;100.00;64312.41;5028521;28;20246;-82
2021/04/15 18:02:55;;;;;;;1.83;1.33;;;;;;;-142.06;100.00;64312.41;5031928;28;20230;-84
2021/04/15 18:07:32;;;;;;;1.70;1.60;;;;;;;-142.06;100.00;64312.41;5061484;28;20217;-83
2021/04/15 18:12:24;;;;;;;2.00;1.90;;;;;;;-142.06;100.00;64312.41;5035918;23;20289;-82
2021/04/15 18:21:25;;;;;;;2.00;1.80;;;;;;;-142.06;100.00;64312.41;5056221;23;20809;-80
2021/04/15 18:25:35;;;;;;;1.60;1.50;;;;;;;-142.06;100.00;64312.41;5072756;23;20230;-81
2021/04/15 18:29:56;;;;;;;1.90;1.80;;;;;;;-142.06;100.00;64312.41;5050546;23;20226;-81
2021/04/15 18:34:32;;;;;;;1.60;1.50;;;;;;;-142.06;100.00;64312.41;5013432;28;20238;-80
2021/04/15 18:39:17;;;;;;;1.53;1.43;;;;;;;-142.06;100.00;64312.41;5041641;23;20245;-81
2021/04/15 18:43:25;;;;;;;1.90;1.80;;;;;;;-142.06;100.00;64312.41;5056049;23;20281;31
2021/04/15 18:47:55;;;;;;;1.83;1.73;;;;;;;-142.06;100.00;64312.41;4987763;23;20233;-80
2021/04/15 18:52:39;;;;;;;2.00;1.43;;;;;;;-142.06;100.00;64312.41;5018838;28;20250;-81
2021/04/15 18:56:41;;;;;;;1.70;1.60;;;;;;;-142.06;100.00;64312.41;5032561;28;20191;-80
2021/04/15 19:01:11;;;;;;;1.70;1.60;;;;;;;-142.06;100.00;64312.41;5034687;28;20242;-80
2021/04/15 19:05:51;;;;;;;1.90;1.80;;;;;;;-142.06;100.00;64312.41;5040976;28;20229;-80
2021/04/15 19:09:45;;;;;;;2.23;2.03;;;;;;;-142.06;100.00;64312.41;5068132;28;20222;-80
2021/04/15 19:13:39;;;;;;;2.33;2.13;;;;;;;-142.06;100.00;64312.41;5073167;28;20166;-80
2021/04/15 19:17:39;;;;;;;2.20;2.00;;;;;;;-142.06;100.00;64312.41;5138086;23;20223;-80
2021/04/15 19:21:59;;;;;;;2.47;2.27;;;;;;;-142.06;100.00;64312.41;5052768;23;20226;-80
2021/04/15 19:26:51;;;;;;;2.40;2.20;;;;;;;-142.06;100.00;64312.41;5030949;23;20230;-80
2021/04/15 19:33:38;;;;;;;2.60;2.40;;;;;;;2.94;64.35;99958.75;5134894;22;20517;-81
2021/04/15 19:36:51;;;;;;;2.57;2.27;;;;;;;2.95;64.73;99978.09;5079281;28;20207;-81
2021/04/15 19:40:27;;;;;;;2.70;2.50;;;;;;;3.08;64.80;99975.81;5130396;23;20222;-81
2021/04/15 19:43:13;;;;;;;2.67;2.47;;;;;;;3.02;64.54;99979.13;5088069;28;20240;-81
2021/04/15 19:46:15;;;;;;;2.73;2.30;;;;;;;3.15;63.19;99979.47;5110017;22;20231;-81
2021/04/15 19:49:08;;;;;;;2.33;2.13;;;;;;;3.00;64.00;99975.81;5102036;22;20305;-81
2021/04/15 19:52:05;;;;;;;2.93;2.10;;;;;;;2.98;63.90;99972.50;5089811;23;20895;-81
2021/04/15 19:55:41;;;;;;;2.37;2.27;;;;;;;3.15;63.93;99976.84;5075187;28;20239;-81
2021/04/15 19:58:59;;;;;;;2.47;2.27;;;;;;;2.96;64.36;99967.38;5090943;28;20161;-81
2021/04/15 20:02:04;;;;;;;2.87;2.43;;;;;;;2.97;64.25;99970.84;5077012;28;20228;-81
2021/04/15 20:04:58;;;;;;;2.67;2.47;;;;;;;3.06;64.12;99973.34;5075795;23;20286;-81
2021/04/15 20:07:54;;;;;;;2.87;2.67;;;;;;;2.91;64.99;99961.72;5047839;28;20642;-81
2021/04/15 20:10:47;;;;;;;2.43;2.23;;;;;;;3.05;64.14;99971.69;5046710;28;20221;-81
2021/04/15 20:13:39;;;;;;;2.57;2.37;;;;;;;3.08;64.12;99976.66;5164266;23;20264;-81
2021/04/15 20:17:00;;;;;;;2.67;2.47;;;;;;;3.07;63.85;99976.81;5124504;23;20213;-80
2021/04/15 20:19:49;;;;;;;3.03;2.80;;;;;;;3.04;64.31;99980.63;5235935;23;20209;-81